createdAt,value
2023-11-28T00:03:14.498Z,94203.02
2023-11-28T00:07:04.345Z,94201.17
2023-11-28T00:10:22.201Z,94203.09
2023-11-28T00:14:11.746Z,94197.08
2023-11-28T00:18:01.533Z,94208.27
2023-11-28T00:21:52.403Z,94212.90
2023-11-28T00:25:42.046Z,94199.18
2023-11-28T00:29:31.613Z,94202.12
2023-11-28T00:33:21.164Z,94198.08
2023-11-28T00:37:00.800Z,94199.44
2023-11-28T00:40:50.597Z,94196.39
2023-11-28T00:44:32.586Z,94194.81
2023-11-28T00:48:22.267Z,94194.35
2023-11-28T00:52:12.064Z,94190.86
2023-11-28T00:56:01.904Z,94181.18
2023-11-28T00:59:51.744Z,94177.17
2023-11-28T01:03:42.505Z,94170.09
2023-11-28T01:07:32.043Z,94160.73
2023-11-28T01:11:20.594Z,94159.02
2023-11-28T01:15:10.332Z,94143.40
2023-11-28T01:18:59.902Z,94141.95
2023-11-28T01:22:49.638Z,94144.09
2023-11-28T01:26:39.417Z,94139.41
2023-11-28T01:30:29.200Z,94129.50
2023-11-28T01:34:18.885Z,94115.09
2023-11-28T01:38:01.160Z,94111.20
2023-11-28T01:41:51.381Z,94100.41
2023-11-28T01:45:13.327Z,94095.16
2023-11-28T01:49:02.794Z,94089.55
2023-11-28T01:52:52.369Z,94087.05
2023-11-28T01:56:41.869Z,94086.83
2023-11-28T02:00:31.409Z,94074.27
2023-11-28T02:04:21.150Z,94069.27
2023-11-28T02:08:10.836Z,94064.47
2023-11-28T02:12:00.636Z,94063.74
2023-11-28T02:15:50.345Z,94067.95
2023-11-28T02:19:39.975Z,94063.86
2023-11-28T02:23:29.681Z,94059.76
2023-11-28T02:27:25.105Z,94056.87
2023-11-28T02:31:14.725Z,94053.36
2023-11-28T02:35:14.455Z,94041.46
2023-11-28T02:39:00.103Z,94037.98
2023-11-28T02:42:49.747Z,94026.25
2023-11-28T02:46:24.785Z,94017.96
2023-11-28T02:50:14.463Z,94015.85
2023-11-28T02:54:04.092Z,94010.61
2023-11-28T02:57:53.677Z,93998.02
2023-11-28T03:01:43.421Z,93987.05
2023-11-28T03:05:33.187Z,93979.02
2023-11-28T03:09:22.725Z,93977.81
2023-11-28T03:13:11.013Z,93969.21
2023-11-28T03:17:01.043Z,93964.40
2023-11-28T03:20:50.758Z,93962.46
2023-11-28T03:24:40.120Z,93947.68
2023-11-28T03:28:29.827Z,93945.18
2023-11-28T03:32:20.105Z,93945.61
2023-11-28T03:36:09.941Z,93944.47
2023-11-28T03:39:34.323Z,93930.12
2023-11-28T03:43:06.456Z,93921.58
2023-11-28T03:46:56.977Z,93911.95
2023-11-28T03:50:46.640Z,93913.52
2023-11-28T03:54:18.410Z,93901.65
2023-11-28T03:58:08.129Z,93900.48
2023-11-28T04:01:57.954Z,93894.02
2023-11-28T04:05:40.583Z,93886.05
2023-11-28T04:09:30.265Z,93885.63
2023-11-28T04:13:20.024Z,93884.63
2023-11-28T04:17:09.758Z,93886.16
2023-11-28T04:20:58.137Z,93881.67
2023-11-28T04:24:38.667Z,93874.44
2023-11-28T04:28:21.539Z,93868.34
2023-11-28T04:32:20.142Z,93863.50
2023-11-28T04:36:09.802Z,93852.05
2023-11-28T04:39:59.391Z,93848.51
2023-11-28T04:43:48.854Z,93843.65
2023-11-28T04:47:38.547Z,93838.24
2023-11-28T04:51:28.190Z,93835.73
2023-11-28T04:55:17.955Z,93831.23
2023-11-28T04:59:07.515Z,93829.55
2023-11-28T05:02:57.088Z,93822.05
2023-11-28T05:06:47.815Z,93819.24
2023-11-28T05:10:37.350Z,93821.71
2023-11-28T05:14:26.900Z,93817.77
2023-11-28T05:18:16.434Z,93814.12
2023-11-28T05:21:56.655Z,93808.73
2023-11-28T05:25:46.227Z,93802.75
2023-11-28T05:29:36.099Z,93807.23
2023-11-28T05:33:15.845Z,93806.70
2023-11-28T05:37:05.583Z,93806.40
2023-11-28T05:40:55.879Z,93801.48
2023-11-28T05:44:31.033Z,93800.59
2023-11-28T05:48:20.478Z,93795.48
2023-11-28T05:52:10.410Z,93787.11
2023-11-28T05:56:00.223Z,93784.96
2023-11-28T05:59:49.710Z,93784.77
2023-11-28T06:03:39.650Z,93779.61
2023-11-28T06:07:19.612Z,93773.80
2023-11-28T06:11:09.436Z,93773.80
2023-11-28T06:14:41.823Z,93769.27
2023-11-28T06:18:31.540Z,93768.66
2023-11-28T06:22:20.921Z,93769.45
2023-11-28T06:26:10.467Z,93764.80
2023-11-28T06:29:59.951Z,93756.30
2023-11-28T06:33:49.467Z,93757.20
2023-11-28T06:37:38.971Z,93752.11
2023-11-28T06:41:28.863Z,93746.58
2023-11-28T06:45:01.007Z,93746.66
2023-11-28T06:48:50.909Z,93742.98
2023-11-28T06:52:40.607Z,93735.19
2023-11-28T06:56:30.255Z,93725.30
2023-11-28T07:00:19.793Z,93723.55
2023-11-28T07:04:09.355Z,93718.95
2023-11-28T07:07:51.632Z,93710.54
2023-11-28T07:11:42.192Z,93708.20
2023-11-28T07:15:31.717Z,93705.38
2023-11-28T07:19:03.109Z,93708.63
2023-11-28T07:22:41.368Z,93708.45
2023-11-28T07:26:30.913Z,93705.80
2023-11-28T07:30:10.503Z,93711.15
2023-11-28T07:34:00.045Z,93708.87
2023-11-28T07:37:49.666Z,93705.94
2023-11-28T07:41:39.299Z,93700.06
2023-11-28T07:45:06.298Z,93701.87
2023-11-28T07:48:41.162Z,93697.08
2023-11-28T07:52:19.750Z,93689.36
2023-11-28T07:55:54.953Z,93690.71
2023-11-28T07:59:34.399Z,93689.90
2023-11-28T08:03:23.772Z,93698.27
2023-11-28T08:07:13.740Z,93689.04
2023-11-28T08:10:53.772Z,93684.55
2023-11-28T08:14:43.355Z,93679.95
2023-11-28T08:18:37.431Z,93674.86
2023-11-28T08:22:29.490Z,93670.38
2023-11-28T08:26:19.088Z,93668.08
2023-11-28T08:30:07.771Z,93673.52
2023-11-28T08:33:32.591Z,93651.53
2023-11-28T08:37:22.345Z,93638.51
2023-11-28T08:41:12.282Z,93637.36
2023-11-28T08:45:01.875Z,93637.21
2023-11-28T08:48:51.828Z,93633.73
2023-11-28T08:52:41.720Z,93624.11
2023-11-28T08:56:31.298Z,93619.21
2023-11-28T09:00:21.073Z,93616.52
2023-11-28T09:04:11.744Z,93602.77
2023-11-28T09:08:01.370Z,93597.39
2023-11-28T09:11:50.996Z,93592.07
2023-11-28T09:15:40.693Z,93583.10
2023-11-28T09:19:30.293Z,93576.91
2023-11-28T09:23:19.945Z,93571.65
2023-11-28T09:26:58.374Z,93557.02
2023-11-28T09:30:48.239Z,93543.20
2023-11-28T09:34:37.951Z,93531.80
2023-11-28T09:38:28.738Z,93526.33
2023-11-28T09:42:18.591Z,93517.98
2023-11-28T09:46:08.462Z,93508.47
2023-11-28T09:50:00.761Z,93500.02
2023-11-28T09:53:50.281Z,93492.24
2023-11-28T09:57:33.986Z,93483.41
2023-11-28T10:01:16.834Z,93474.38
2023-11-28T10:05:06.616Z,93458.34
2023-11-28T10:08:56.314Z,93446.92
2023-11-28T10:12:45.843Z,93440.46
2023-11-28T10:16:34.525Z,93429.59
2023-11-28T10:20:29.603Z,93418.77
2023-11-28T10:24:19.448Z,93409.98
2023-11-28T10:28:08.988Z,93408.15
2023-11-28T10:31:59.268Z,93410.98
2023-11-28T10:35:53.259Z,93397.70
2023-11-28T10:39:42.846Z,93381.95
2023-11-28T10:43:32.525Z,93370.49
2023-11-28T10:47:22.139Z,93355.70
2023-11-28T10:51:11.746Z,93341.32
2023-11-28T10:54:57.947Z,93328.30
2023-11-28T10:58:56.457Z,93325.15
2023-11-28T11:02:46.040Z,93327.98
2023-11-28T11:06:35.649Z,93326.11
2023-11-28T11:10:25.388Z,93311.85
2023-11-28T11:14:26.968Z,93303.85
2023-11-28T11:18:24.267Z,93291.84
2023-11-28T11:22:19.677Z,93287.52
2023-11-28T11:26:09.432Z,93273.92
2023-11-28T11:30:07.760Z,93258.75
2023-11-28T11:33:57.297Z,93258.39
2023-11-28T11:37:46.913Z,93246.61
2023-11-28T11:41:36.602Z,93233.84
2023-11-28T11:45:31.900Z,93230.71
2023-11-28T11:49:27.238Z,93226.76
2023-11-28T11:53:16.846Z,93219.30
2023-11-28T11:57:06.623Z,93211.02
2023-11-28T12:00:57.341Z,93198.05
2023-11-28T12:04:46.883Z,93186.16
2023-11-28T12:08:36.506Z,93180.28
2023-11-28T12:12:26.026Z,93163.97
2023-11-28T12:16:15.559Z,93146.89
2023-11-28T12:20:05.164Z,93137.19
2023-11-28T12:23:44.530Z,93125.34
2023-11-28T12:27:34.305Z,93111.98
2023-11-28T12:31:24.128Z,93104.90
2023-11-28T12:35:13.589Z,93101.38
2023-11-28T12:39:03.261Z,93096.20
2023-11-28T12:42:52.848Z,93092.58
2023-11-28T12:46:42.720Z,93085.23
2023-11-28T12:50:32.539Z,93080.64
2023-11-28T12:54:22.084Z,93072.87
2023-11-28T12:58:11.677Z,93066.46
2023-11-28T13:02:01.483Z,93065.70
2023-11-28T13:05:41.963Z,93058.30
2023-11-28T13:09:16.768Z,93055.19
2023-11-28T13:13:12.345Z,93046.81
2023-11-28T13:17:08.328Z,93047.58
2023-11-28T13:20:56.622Z,93043.51
2023-11-28T13:24:46.147Z,93036.79
2023-11-28T13:28:35.634Z,93026.41
2023-11-28T13:32:24.991Z,93022.35
2023-11-28T13:36:14.739Z,93024.73
2023-11-28T13:40:04.548Z,93019.95
2023-11-28T13:43:54.164Z,93023.41
2023-11-28T13:47:43.831Z,93020.61
2023-11-28T13:51:33.424Z,93014.86
2023-11-28T13:55:22.865Z,93000.05
2023-11-28T13:59:12.261Z,92989.85
2023-11-28T14:03:01.981Z,92988.45
2023-11-28T14:06:51.806Z,92981.61
2023-11-28T14:10:41.324Z,92979.30
2023-11-28T14:14:42.798Z,92965.21
2023-11-28T14:18:39.994Z,92973.23
2023-11-28T14:22:29.162Z,92959.28
2023-11-28T14:26:18.804Z,92952.37
2023-11-28T14:30:08.483Z,92944.78
2023-11-28T14:33:58.018Z,92948.31
2023-11-28T14:37:47.750Z,92941.04
2023-11-28T14:41:37.425Z,92938.77
2023-11-28T14:45:27.070Z,92935.23
2023-11-28T14:49:18.279Z,92936.16
2023-11-28T14:53:11.940Z,92936.09
2023-11-28T14:57:02.608Z,92928.70
2023-11-28T15:00:52.535Z,92929.89
2023-11-28T15:04:43.183Z,92929.07
2023-11-28T15:08:33.532Z,92937.82
2023-11-28T15:12:23.349Z,92937.91
2023-11-28T15:16:12.998Z,92934.32
2023-11-28T15:19:56.341Z,92941.50
2023-11-28T15:23:47.022Z,92946.15
2023-11-28T15:27:36.623Z,92943.04
2023-11-28T15:31:26.403Z,92953.17
2023-11-28T15:35:17.068Z,92948.92
2023-11-28T15:39:06.415Z,92944.25
2023-11-28T15:42:59.363Z,92941.28
2023-11-28T15:46:49.684Z,92935.12
2023-11-28T15:50:39.240Z,92932.55
2023-11-28T15:54:28.879Z,92924.45
2023-11-28T15:58:19.193Z,92912.77
2023-11-28T16:02:02.515Z,92915.91
2023-11-28T16:05:52.255Z,92926.34
2023-11-28T16:09:42.667Z,92930.27
2023-11-28T16:13:32.084Z,92934.70
2023-11-28T16:17:21.803Z,92938.09
2023-11-28T16:21:12.157Z,92939.54
2023-11-28T16:25:01.638Z,92939.83
2023-11-28T16:29:19.428Z,92929.98
2023-11-28T16:33:49.820Z,92926.44
2023-11-28T16:38:19.733Z,92936.64
2023-11-28T16:42:11.578Z,92936.65
2023-11-28T16:46:01.112Z,92939.41
2023-11-28T16:49:50.656Z,92935.61
2023-11-28T16:53:43.445Z,92933.95
2023-11-28T16:57:33.037Z,92933.52
2023-11-28T17:01:22.616Z,92930.30
2023-11-28T17:05:12.119Z,92931.27
2023-11-28T17:09:01.614Z,92939.13
2023-11-28T17:12:51.353Z,92942.18
2023-11-28T17:16:39.995Z,92936.94
2023-11-28T17:20:29.084Z,92933.88
2023-11-28T17:24:13.032Z,92930.58
2023-11-28T17:28:02.604Z,92931.27
2023-11-28T17:31:52.001Z,92931.77
2023-11-28T17:35:44.187Z,92925.77
2023-11-28T17:39:54.229Z,92923.42
2023-11-28T17:43:43.749Z,92922.27
2023-11-28T17:47:33.359Z,92918.34
2023-11-28T17:51:23.255Z,92915.58
2023-11-28T17:55:12.864Z,92911.02
2023-11-28T17:59:01.954Z,92907.55
2023-11-28T18:02:51.454Z,92905.77
2023-11-28T18:06:40.987Z,92898.73
2023-11-28T18:10:30.532Z,92902.35
2023-11-28T18:14:20.242Z,92893.59
2023-11-28T18:18:11.092Z,92890.50
2023-11-28T18:22:00.680Z,92889.64
2023-11-28T18:25:50.364Z,92894.42
2023-11-28T18:29:39.600Z,92892.94
2023-11-28T18:33:29.530Z,92892.07
2023-11-28T18:37:21.629Z,92888.55
2023-11-28T18:41:11.234Z,92884.30
2023-11-28T18:45:00.752Z,92883.98
2023-11-28T18:48:50.469Z,92880.84
2023-11-28T18:52:40.001Z,92871.96
2023-11-28T18:56:29.919Z,92882.77
2023-11-28T19:00:21.931Z,92883.39
2023-11-28T19:04:11.703Z,92882.52
2023-11-28T19:08:01.417Z,92880.75
2023-11-28T19:11:51.443Z,92881.88
2023-11-28T19:15:41.018Z,92883.73
2023-11-28T19:19:23.183Z,92872.73
2023-11-28T19:23:12.944Z,92873.75
2023-11-28T19:27:05.681Z,92867.84
2023-11-28T19:30:56.128Z,92868.70
2023-11-28T19:34:35.663Z,92861.87
2023-11-28T19:38:25.215Z,92863.74
2023-11-28T19:42:15.724Z,92857.30
2023-11-28T19:46:05.756Z,92861.02
2023-11-28T19:49:55.885Z,92857.56
2023-11-28T19:53:45.616Z,92859.52
2023-11-28T19:57:35.305Z,92853.84
2023-11-28T20:01:24.960Z,92855.98
2023-11-28T20:05:35.257Z,92856.40
2023-11-28T20:09:24.845Z,92854.25
2023-11-28T20:13:14.367Z,92859.23
2023-11-28T20:17:03.837Z,92855.11
2023-11-28T20:20:53.313Z,92856.56
2023-11-28T20:24:43.265Z,92860.52
2023-11-28T20:28:32.794Z,92860.65
2023-11-28T20:32:22.455Z,92860.77
2023-11-28T20:36:11.899Z,92863.66
2023-11-28T20:40:01.576Z,92860.08
2023-11-28T20:43:51.177Z,92866.22
2023-11-28T20:47:40.981Z,92863.42
2023-11-28T20:51:30.610Z,92867.14
2023-11-28T20:55:20.059Z,92873.63
2023-11-28T20:59:09.614Z,92870.11
2023-11-28T21:02:59.505Z,92874.88
2023-11-28T21:06:48.992Z,92873.77
2023-11-28T21:10:38.790Z,92874.92
2023-11-28T21:14:29.276Z,92876.38
2023-11-28T21:18:19.194Z,92882.99
2023-11-28T21:22:08.773Z,92879.39
2023-11-28T21:25:58.623Z,92876.79
2023-11-28T21:29:48.140Z,92886.25
2023-11-28T21:33:37.745Z,92895.08
2023-11-28T21:37:22.566Z,92893.52
2023-11-28T21:41:12.276Z,92897.94
2023-11-28T21:45:02.683Z,92904.09
2023-11-28T21:48:52.291Z,92914.54
2023-11-28T21:52:41.987Z,92915.48
2023-11-28T21:56:33.506Z,92915.86
2023-11-28T22:00:04.050Z,92911.64
2023-11-28T22:03:42.381Z,92916.35
2023-11-28T22:07:32.303Z,92918.29
2023-11-28T22:11:22.146Z,92921.36
2023-11-28T22:15:11.886Z,92918.67
2023-11-28T22:19:01.504Z,92919.09
2023-11-28T22:22:51.139Z,92930.17
2023-11-28T22:26:40.945Z,92928.46
2023-11-28T22:30:30.540Z,92930.16
2023-11-28T22:34:20.125Z,92933.37
2023-11-28T22:38:02.519Z,92932.02
2023-11-28T22:41:52.274Z,92939.70
2023-11-28T22:45:41.828Z,92943.52
2023-11-28T22:49:31.593Z,92946.60
2023-11-28T22:53:21.440Z,92947.37
2023-11-28T22:57:11.438Z,92947.51
2023-11-28T23:00:54.973Z,92954.57
2023-11-28T23:04:44.601Z,92958.09
2023-11-28T23:08:26.824Z,92960.98
2023-11-28T23:12:16.459Z,92964.86
2023-11-28T23:16:06.266Z,92971.61
2023-11-28T23:19:55.800Z,92970.63
2023-11-28T23:23:45.532Z,92976.70
2023-11-28T23:27:35.123Z,92979.52
2023-11-28T23:31:24.825Z,92981.29
2023-11-28T23:35:14.349Z,92989.63
2023-11-28T23:39:04.020Z,92996.45
2023-11-28T23:42:54.771Z,93007.70
2023-11-28T23:46:44.447Z,93016.86
2023-11-28T23:50:34.104Z,93024.71
2023-11-28T23:54:16.292Z,93031.03
2023-11-28T23:58:06.080Z,93046.36
